createdAt,value
2024-01-12T00:02:02.302Z,-1.89
2024-01-12T00:05:04.316Z,-1.81
2024-01-12T00:08:06.265Z,-1.85
2024-01-12T00:11:09.057Z,-1.79
2024-01-12T00:14:12.648Z,-1.95
2024-01-12T00:17:14.343Z,-1.85
2024-01-12T00:20:16.152Z,-1.86
2024-01-12T00:23:17.889Z,-1.90
2024-01-12T00:26:19.596Z,-1.96
2024-01-12T00:29:21.279Z,-2.00
2024-01-12T00:32:23.178Z,-2.13
2024-01-12T00:35:25.042Z,-2.20
2024-01-12T00:38:26.651Z,-2.17
2024-01-12T00:41:29.207Z,-2.21
2024-01-12T00:44:30.904Z,-2.12
2024-01-12T00:47:32.815Z,-2.24
2024-01-12T00:50:34.881Z,-2.16
2024-01-12T00:53:37.071Z,-2.25
2024-01-12T00:56:39.050Z,-2.37
2024-01-12T00:59:40.977Z,-2.46
2024-01-12T01:02:42.704Z,-2.60
2024-01-12T01:05:44.448Z,-2.61
2024-01-12T01:08:47.275Z,-2.82
2024-01-12T01:11:53.548Z,-2.74
2024-01-12T01:14:55.497Z,-2.77
2024-01-12T01:17:57.277Z,-2.71
2024-01-12T01:20:59.606Z,-2.76
2024-01-12T01:24:01.334Z,-2.74
2024-01-12T01:27:03.537Z,-2.78
2024-01-12T01:30:05.843Z,-2.71
2024-01-12T01:33:08.546Z,-2.73
2024-01-12T01:36:10.360Z,-2.61
2024-01-12T01:39:11.988Z,-2.65
2024-01-12T01:42:13.623Z,-2.52
2024-01-12T01:45:15.529Z,-2.54
2024-01-12T01:48:17.071Z,-2.37
2024-01-12T01:51:18.799Z,-2.45
2024-01-12T01:54:20.664Z,-2.36
2024-01-12T01:57:22.393Z,-2.38
2024-01-12T02:00:24.585Z,-2.47
2024-01-12T02:03:29.161Z,-2.45
2024-01-12T02:06:31.422Z,-2.58
2024-01-12T02:09:34.016Z,-2.58
2024-01-12T02:12:36.946Z,-2.55
2024-01-12T02:15:38.667Z,-2.50
2024-01-12T02:18:40.411Z,-2.48
2024-01-12T02:21:42.147Z,-2.60
2024-01-12T02:24:43.742Z,-2.47
2024-01-12T02:27:45.594Z,-2.49
2024-01-12T02:30:47.863Z,-2.48
2024-01-12T02:33:52.943Z,-2.45
2024-01-12T02:36:54.645Z,-2.58
2024-01-12T02:39:56.309Z,-2.60
2024-01-12T02:42:57.960Z,-2.56
2024-01-12T02:45:59.695Z,-2.70
2024-01-12T02:49:02.194Z,-2.63
2024-01-12T02:52:04.078Z,-2.70
2024-01-12T02:55:06.258Z,-2.61
2024-01-12T02:58:07.907Z,-2.69
2024-01-12T03:01:09.597Z,-2.64
2024-01-12T03:04:11.336Z,-2.67
2024-01-12T03:07:13.141Z,-2.72
2024-01-12T03:10:17.804Z,-2.58
2024-01-12T03:13:19.429Z,-2.63
2024-01-12T03:16:21.982Z,-2.60
2024-01-12T03:19:23.807Z,-2.64
2024-01-12T03:22:25.481Z,-2.54
2024-01-12T03:25:27.064Z,-2.53
2024-01-12T03:28:28.758Z,-2.60
2024-01-12T03:31:30.684Z,-2.67
2024-01-12T03:34:32.568Z,-2.67
2024-01-12T03:37:34.114Z,-2.63
2024-01-12T03:40:35.742Z,-2.63
2024-01-12T03:43:38.922Z,-2.61
2024-01-12T03:46:40.534Z,-2.68
2024-01-12T03:49:43.025Z,-2.62
2024-01-12T03:52:44.726Z,-2.64
2024-01-12T03:55:46.362Z,-2.64
2024-01-12T03:58:47.967Z,-2.69
2024-01-12T04:01:49.633Z,-2.66
2024-01-12T04:04:51.286Z,-2.71
2024-01-12T04:07:53.159Z,-2.68
2024-01-12T04:10:54.893Z,-2.80
2024-01-12T04:13:56.598Z,-2.66
2024-01-12T04:16:58.242Z,-2.63
2024-01-12T04:19:59.886Z,-2.68
2024-01-12T04:23:02.078Z,-2.68
2024-01-12T04:26:03.950Z,-2.58
2024-01-12T04:29:05.578Z,-2.58
2024-01-12T04:32:07.289Z,-2.63
2024-01-12T04:35:09.131Z,-2.58
2024-01-12T04:38:11.782Z,-2.55
2024-01-12T04:41:13.424Z,-2.68
2024-01-12T04:44:15.204Z,-2.58
2024-01-12T04:47:16.891Z,-2.58
2024-01-12T04:50:18.666Z,-2.62
2024-01-12T04:53:22.035Z,-2.65
2024-01-12T04:56:24.402Z,-2.80
2024-01-12T04:59:27.322Z,-2.92
2024-01-12T05:02:29.090Z,-2.94
2024-01-12T05:05:30.742Z,-2.90
2024-01-12T05:08:35.102Z,-3.08
2024-01-12T05:11:36.839Z,-3.06
2024-01-12T05:14:38.537Z,-3.13
2024-01-12T05:17:40.338Z,-3.11
2024-01-12T05:20:41.951Z,-3.12
2024-01-12T05:23:45.422Z,-3.22
2024-01-12T05:26:47.262Z,-3.23
2024-01-12T05:29:51.242Z,-3.23
2024-01-12T05:32:53.023Z,-3.32
2024-01-12T05:35:54.920Z,-3.29
2024-01-12T05:38:56.739Z,-3.26
2024-01-12T05:41:58.489Z,-3.24
2024-01-12T05:45:00.316Z,-3.18
2024-01-12T05:48:02.172Z,-3.20
2024-01-12T05:51:04.319Z,-3.30
2024-01-12T05:54:06.102Z,-3.40
2024-01-12T05:57:07.787Z,-3.40
2024-01-12T06:00:10.630Z,-3.45
2024-01-12T06:03:12.925Z,-3.60
2024-01-12T06:06:14.889Z,-3.67
2024-01-12T06:09:16.637Z,-3.76
2024-01-12T06:12:18.273Z,-3.83
2024-01-12T06:15:20.009Z,-3.87
2024-01-12T06:18:21.996Z,-3.87
2024-01-12T06:21:23.619Z,-3.83
2024-01-12T06:24:25.247Z,-3.82
2024-01-12T06:27:26.879Z,-3.78
2024-01-12T06:30:28.503Z,-3.92
2024-01-12T06:33:32.608Z,-3.70
2024-01-12T06:36:34.484Z,-3.61
2024-01-12T06:39:36.205Z,-3.59
2024-01-12T06:42:37.845Z,-3.61
2024-01-12T06:45:39.570Z,-3.69
2024-01-12T06:48:41.316Z,-3.57
2024-01-12T06:51:43.057Z,-3.69
2024-01-12T06:54:45.395Z,-3.73
2024-01-12T06:57:48.170Z,-3.72
2024-01-12T07:00:50.026Z,-3.67
2024-01-12T07:03:54.538Z,-3.63
2024-01-12T07:06:56.425Z,-3.64
2024-01-12T07:09:58.148Z,-3.60
2024-01-12T07:12:59.973Z,-3.64
2024-01-12T07:16:01.756Z,-3.59
2024-01-12T07:19:03.747Z,-3.52
2024-01-12T07:22:05.362Z,-3.46
2024-01-12T07:25:07.520Z,-3.41
2024-01-12T07:28:08.989Z,-3.29
2024-01-12T07:31:10.744Z,-3.20
2024-01-12T07:34:12.640Z,-2.94
2024-01-12T07:37:14.335Z,-2.90
2024-01-12T07:40:16.065Z,-2.70
2024-01-12T07:43:17.838Z,-2.70
2024-01-12T07:46:19.830Z,-2.54
2024-01-12T07:49:21.569Z,-2.44
2024-01-12T07:52:23.626Z,-2.31
2024-01-12T07:55:25.461Z,-2.23
2024-01-12T07:58:29.137Z,-2.17
2024-01-12T08:01:31.368Z,-2.07
2024-01-12T08:04:33.209Z,-1.98
2024-01-12T08:07:36.734Z,-1.83
2024-01-12T08:10:38.438Z,-1.72
2024-01-12T08:13:40.039Z,-1.63
2024-01-12T08:16:41.735Z,-1.54
2024-01-12T08:19:43.416Z,-1.50
2024-01-12T08:22:45.209Z,-1.30
2024-01-12T08:25:46.737Z,-1.30
2024-01-12T08:28:52.490Z,-1.33
2024-01-12T08:31:54.232Z,-0.94
2024-01-12T08:34:55.965Z,-0.97
2024-01-12T08:37:57.658Z,-0.91
2024-01-12T08:40:59.305Z,-0.92
2024-01-12T08:44:00.886Z,-0.85
2024-01-12T08:47:02.478Z,-0.77
2024-01-12T08:50:04.524Z,-0.70
2024-01-12T08:53:06.846Z,-0.69
2024-01-12T08:56:09.199Z,-0.56
2024-01-12T08:59:11.077Z,-0.48
2024-01-12T09:02:12.601Z,-0.19
2024-01-12T09:05:14.515Z,-0.20
2024-01-12T09:08:16.497Z,-0.24
2024-01-12T09:11:18.422Z,0.21
2024-01-12T09:14:20.474Z,0.01
2024-01-12T09:17:22.813Z,0.14
2024-01-12T09:20:24.466Z,0.22
2024-01-12T09:23:26.187Z,0.35
2024-01-12T09:26:27.809Z,0.16
2024-01-12T09:29:29.629Z,0.25
2024-01-12T09:32:32.256Z,0.35
2024-01-12T09:35:35.214Z,0.51
2024-01-12T09:38:37.231Z,0.57
2024-01-12T09:41:46.691Z,0.81
2024-01-12T09:44:59.283Z,1.00
2024-01-12T09:48:09.617Z,0.96
2024-01-12T09:51:13.404Z,1.33
2024-01-12T09:54:15.150Z,1.20
2024-01-12T09:57:17.176Z,1.29
2024-01-12T10:00:22.033Z,1.11
2024-01-12T10:03:25.525Z,1.25
2024-01-12T10:06:27.223Z,1.19
2024-01-12T10:09:29.461Z,1.41
2024-01-12T10:12:31.134Z,1.52
2024-01-12T10:15:41.362Z,1.58
2024-01-12T10:18:43.841Z,1.58
2024-01-12T10:21:45.702Z,1.55
2024-01-12T10:24:47.237Z,1.96
2024-01-12T10:27:58.947Z,1.65
2024-01-12T10:31:07.005Z,1.55
2024-01-12T10:34:17.166Z,1.69
2024-01-12T10:37:20.983Z,1.85
2024-01-12T10:40:23.860Z,1.96
2024-01-12T10:43:27.577Z,1.91
2024-01-12T10:46:46.813Z,1.89
2024-01-12T10:50:00.537Z,2.14
2024-01-12T10:53:14.353Z,2.36
2024-01-12T10:56:16.921Z,2.32
2024-01-12T10:59:19.855Z,3.05
2024-01-12T11:02:22.723Z,3.87
2024-01-12T11:05:29.784Z,4.00
2024-01-12T11:08:32.123Z,3.66
2024-01-12T11:11:50.437Z,4.30
2024-01-12T11:14:52.392Z,4.66
2024-01-12T11:17:55.263Z,4.38
2024-01-12T11:21:04.316Z,4.20
2024-01-12T11:24:06.851Z,4.03
2024-01-12T11:27:09.003Z,4.90
2024-01-12T11:30:16.125Z,4.74
2024-01-12T11:33:20.567Z,5.58
2024-01-12T11:36:28.072Z,5.46
2024-01-12T11:39:36.476Z,5.34
2024-01-12T11:42:39.443Z,5.99
2024-01-12T11:45:42.634Z,5.42
2024-01-12T11:48:46.097Z,3.92
2024-01-12T11:51:47.955Z,2.88
2024-01-12T11:54:49.435Z,2.55
2024-01-12T11:57:53.301Z,2.24
2024-01-12T12:00:54.971Z,2.12
2024-01-12T12:03:56.618Z,1.99
2024-01-12T12:06:58.473Z,1.72
2024-01-12T12:10:00.324Z,1.64
2024-01-12T12:13:02.014Z,1.50
2024-01-12T12:16:04.470Z,1.51
2024-01-12T12:19:06.524Z,1.51
2024-01-12T12:22:08.380Z,1.43
2024-01-12T12:25:16.258Z,1.37
2024-01-12T12:28:18.408Z,1.25
2024-01-12T12:31:22.119Z,1.22
2024-01-12T12:34:24.149Z,1.16
2024-01-12T12:37:26.026Z,1.30
2024-01-12T12:40:27.708Z,1.34
2024-01-12T12:43:29.553Z,1.34
2024-01-12T12:46:31.439Z,1.27
2024-01-12T12:49:38.133Z,1.17
2024-01-12T12:52:41.734Z,1.20
2024-01-12T12:55:46.472Z,1.23
2024-01-12T12:58:48.125Z,1.19
2024-01-12T13:01:49.866Z,1.20
2024-01-12T13:04:53.588Z,1.22
2024-01-12T13:07:57.071Z,1.09
2024-01-12T13:10:59.509Z,1.21
2024-01-12T13:14:01.701Z,1.12
2024-01-12T13:17:04.759Z,1.22
2024-01-12T13:20:07.054Z,1.21
2024-01-12T13:23:08.812Z,1.24
2024-01-12T13:26:11.006Z,1.28
2024-01-12T13:29:12.616Z,1.26
2024-01-12T13:32:14.746Z,1.22
2024-01-12T13:35:16.770Z,1.37
2024-01-12T13:38:18.569Z,1.41
2024-01-12T13:41:20.700Z,1.58
2024-01-12T13:44:22.473Z,1.60
2024-01-12T13:47:24.416Z,1.63
2024-01-12T13:50:26.882Z,1.74
2024-01-12T13:53:29.123Z,1.67
2024-01-12T13:56:30.875Z,1.56
2024-01-12T13:59:32.471Z,1.58
2024-01-12T14:02:34.113Z,1.53
2024-01-12T14:05:35.906Z,1.43
2024-01-12T14:08:37.857Z,1.47
2024-01-12T14:11:40.348Z,1.51
2024-01-12T14:14:42.413Z,1.49
2024-01-12T14:17:44.199Z,1.40
2024-01-12T14:20:47.207Z,1.40
2024-01-12T14:23:48.990Z,1.40
2024-01-12T14:26:51.875Z,1.27
2024-01-12T14:29:55.584Z,1.30
2024-01-12T14:32:58.229Z,1.17
2024-01-12T14:36:04.391Z,1.09
2024-01-12T14:39:07.543Z,1.10
2024-01-12T14:42:09.397Z,1.17
2024-01-12T14:45:11.188Z,1.15
2024-01-12T14:48:14.455Z,1.02
2024-01-12T14:51:16.456Z,1.02
2024-01-12T14:54:18.182Z,1.03
2024-01-12T14:57:19.832Z,1.04
2024-01-12T15:00:21.789Z,1.01
2024-01-12T15:03:29.542Z,0.97
2024-01-12T15:06:32.004Z,0.93
2024-01-12T15:09:35.625Z,0.95
2024-01-12T15:12:38.101Z,0.91
2024-01-12T15:15:40.311Z,0.79
2024-01-12T15:18:42.251Z,0.83
2024-01-12T15:21:44.161Z,0.84
2024-01-12T15:24:45.828Z,0.70
2024-01-12T15:27:47.478Z,0.79
2024-01-12T15:30:49.503Z,0.78
2024-01-12T15:33:51.509Z,0.72
2024-01-12T15:36:53.277Z,0.80
2024-01-12T15:39:54.964Z,0.75
2024-01-12T15:42:56.476Z,0.75
2024-01-12T15:45:58.848Z,0.63
2024-01-12T15:49:00.749Z,0.67
2024-01-12T15:52:02.491Z,0.73
2024-01-12T15:55:04.118Z,0.66
2024-01-12T15:58:05.890Z,0.70
2024-01-12T16:01:07.419Z,0.69
2024-01-12T16:04:10.785Z,0.58
2024-01-12T16:07:12.963Z,0.60
2024-01-12T16:10:14.568Z,0.63
2024-01-12T16:13:16.213Z,0.55
2024-01-12T16:16:17.883Z,0.53
2024-01-12T16:19:20.257Z,0.57
2024-01-12T16:22:22.096Z,0.54
2024-01-12T16:25:24.475Z,0.42
2024-01-12T16:28:26.458Z,0.47
2024-01-12T16:31:28.166Z,0.41
2024-01-12T16:34:29.952Z,0.48
2024-01-12T16:37:32.634Z,0.44
2024-01-12T16:40:34.501Z,0.37
2024-01-12T16:43:37.025Z,0.41
2024-01-12T16:46:38.776Z,0.25
2024-01-12T16:49:41.042Z,0.21
2024-01-12T16:52:43.352Z,0.00
2024-01-12T16:55:46.597Z,-0.32
2024-01-12T16:58:48.226Z,-0.32
2024-01-12T17:01:51.028Z,-0.42
2024-01-12T17:04:52.756Z,-0.58
2024-01-12T17:07:54.353Z,-0.60
2024-01-12T17:10:55.949Z,-0.60
2024-01-12T17:13:57.886Z,-0.66
2024-01-12T17:16:59.462Z,-0.62
2024-01-12T17:20:01.701Z,-0.73
2024-01-12T17:23:03.722Z,-0.78
2024-01-12T17:26:11.208Z,-0.66
2024-01-12T17:29:12.843Z,-0.72
2024-01-12T17:32:14.518Z,-0.81
2024-01-12T17:35:16.437Z,-0.74
2024-01-12T17:38:18.132Z,-0.84
2024-01-12T17:41:24.051Z,-0.92
2024-01-12T17:44:26.206Z,-0.92
2024-01-12T17:47:30.615Z,-1.02
2024-01-12T17:50:35.036Z,-1.04
2024-01-12T17:53:37.295Z,-1.04
2024-01-12T17:56:39.041Z,-1.17
2024-01-12T17:59:40.676Z,-1.15
2024-01-12T18:02:42.377Z,-1.09
2024-01-12T18:05:44.139Z,-1.11
2024-01-12T18:08:45.790Z,-1.11
2024-01-12T18:11:47.508Z,-1.25
2024-01-12T18:14:51.476Z,-1.19
2024-01-12T18:17:53.428Z,-1.20
2024-01-12T18:20:55.182Z,-1.27
2024-01-12T18:23:56.968Z,-1.31
2024-01-12T18:26:58.689Z,-1.39
2024-01-12T18:30:01.033Z,-1.41
2024-01-12T18:33:03.067Z,-1.46
2024-01-12T18:36:06.206Z,-1.38
2024-01-12T18:39:07.983Z,-1.56
2024-01-12T18:42:09.985Z,-1.48
2024-01-12T18:45:11.795Z,-1.62
2024-01-12T18:48:14.602Z,-1.63
2024-01-12T18:51:16.438Z,-1.67
2024-01-12T18:54:19.521Z,-1.66
2024-01-12T18:57:22.596Z,-1.74
2024-01-12T19:00:24.329Z,-1.69
2024-01-12T19:03:25.881Z,-1.64
2024-01-12T19:06:27.619Z,-1.74
2024-01-12T19:09:29.199Z,-1.69
2024-01-12T19:12:30.844Z,-1.88
2024-01-12T19:15:32.588Z,-1.87
2024-01-12T19:18:34.298Z,-1.86
2024-01-12T19:21:36.043Z,-1.86
2024-01-12T19:24:42.810Z,-1.90
2024-01-12T19:27:44.457Z,-1.77
2024-01-12T19:30:46.183Z,-1.72
2024-01-12T19:33:48.055Z,-1.81
2024-01-12T19:36:50.747Z,-1.84
2024-01-12T19:39:52.687Z,-1.86
2024-01-12T19:42:54.349Z,-1.78
2024-01-12T19:45:56.001Z,-1.81
2024-01-12T19:48:58.630Z,-1.85
2024-01-12T19:52:00.564Z,-1.97
2024-01-12T19:55:02.370Z,-2.00
2024-01-12T19:58:05.439Z,-2.15
2024-01-12T20:01:10.737Z,-2.06
2024-01-12T20:04:13.444Z,-2.19
2024-01-12T20:07:15.567Z,-1.96
2024-01-12T20:10:17.452Z,-1.89
2024-01-12T20:13:21.140Z,-1.93
2024-01-12T20:16:23.023Z,-1.93
2024-01-12T20:19:24.802Z,-1.94
2024-01-12T20:22:26.624Z,-1.98
2024-01-12T20:25:28.317Z,-1.94
2024-01-12T20:28:30.137Z,-2.01
2024-01-12T20:31:32.038Z,-1.93
2024-01-12T20:34:33.719Z,-1.88
2024-01-12T20:37:35.421Z,-1.88
2024-01-12T20:40:39.525Z,-1.88
2024-01-12T20:43:41.238Z,-1.89
2024-01-12T20:46:46.048Z,-1.90
2024-01-12T20:49:47.720Z,-1.95
2024-01-12T20:52:49.402Z,-2.04
2024-01-12T20:55:51.049Z,-2.08
2024-01-12T20:58:55.169Z,-1.95
2024-01-12T21:01:57.379Z,-1.94
2024-01-12T21:04:59.125Z,-1.96
2024-01-12T21:08:01.099Z,-2.04
2024-01-12T21:11:02.740Z,-1.97
2024-01-12T21:14:04.422Z,-2.10
2024-01-12T21:17:06.097Z,-2.04
2024-01-12T21:20:09.538Z,-1.99
2024-01-12T21:23:11.387Z,-2.06
2024-01-12T21:26:12.977Z,-2.15
2024-01-12T21:29:14.662Z,-2.11
2024-01-12T21:32:16.362Z,-2.10
2024-01-12T21:35:18.232Z,-2.15
2024-01-12T21:38:20.627Z,-2.22
2024-01-12T21:41:24.050Z,-2.28
2024-01-12T21:44:27.054Z,-2.36
2024-01-12T21:47:29.058Z,-2.26
2024-01-12T21:50:30.811Z,-2.31
2024-01-12T21:53:32.467Z,-2.32
2024-01-12T21:56:34.154Z,-2.48
2024-01-12T21:59:36.209Z,-2.46
2024-01-12T22:02:37.916Z,-2.41
2024-01-12T22:05:39.545Z,-2.39
2024-01-12T22:08:41.242Z,-2.29
2024-01-12T22:11:44.076Z,-2.34
2024-01-12T22:14:45.783Z,-2.36
2024-01-12T22:17:48.446Z,-2.33
2024-01-12T22:20:51.105Z,-2.44
2024-01-12T22:23:52.842Z,-2.40
2024-01-12T22:26:54.972Z,-2.45
2024-01-12T22:29:56.803Z,-2.52
2024-01-12T22:32:58.574Z,-2.58
2024-01-12T22:36:01.022Z,-2.61
2024-01-12T22:39:02.830Z,-2.68
2024-01-12T22:42:04.772Z,-2.71
2024-01-12T22:45:07.295Z,-2.81
2024-01-12T22:48:09.217Z,-2.72
2024-01-12T22:51:11.005Z,-2.66
2024-01-12T22:54:12.861Z,-2.72
2024-01-12T22:57:14.494Z,-2.63
2024-01-12T23:00:32.896Z,-2.38
2024-01-12T23:03:35.201Z,-2.35
2024-01-12T23:06:37.027Z,-2.36
2024-01-12T23:09:38.706Z,-2.32
2024-01-12T23:12:40.862Z,-2.45
2024-01-12T23:15:42.593Z,-2.41
2024-01-12T23:18:44.581Z,-2.51
2024-01-12T23:21:46.337Z,-2.44
2024-01-12T23:24:47.931Z,-2.48
2024-01-12T23:27:51.821Z,-2.41
2024-01-12T23:30:53.567Z,-2.42
2024-01-12T23:33:55.470Z,-2.53
2024-01-12T23:36:57.011Z,-2.43
2024-01-12T23:39:58.674Z,-2.49
2024-01-12T23:43:00.324Z,-2.51
2024-01-12T23:46:02.116Z,-2.53
2024-01-12T23:49:04.224Z,-2.46
2024-01-12T23:52:07.898Z,-2.45
2024-01-12T23:55:09.912Z,-2.34
2024-01-12T23:58:15.108Z,-2.39
